Time,TemperatureF,DewpointF,PressureIn,WindDirection,WindDirectionDegrees,WindSpeedMPH,WindSpeedGustMPH,Humidity,HourlyPrecipIn,Conditions,Clouds,dailyrainin,SoftwareType,DateUTC
2013-03-21 00:00:00,15.3,11.3,29.91,WSW,247,3.0,5.0,84,0.00,SCT,,0.00,WeatherDisplay:10.37,2013-03-21 04:00:00,
2013-03-21 00:15:00,16.0,12.0,29.91,SW,231,3.0,5.0,84,0.00,SCT,,0.00,WeatherDisplay:10.37,2013-03-21 04:15:00,
2013-03-21 00:30:00,16.0,12.0,29.91,SW,234,2.0,5.0,84,0.00,SCT,,0.00,WeatherDisplay:10.37,2013-03-21 04:30:00,
2013-03-21 00:45:00,16.0,12.0,29.90,WSW,248,3.0,5.0,84,0.00,SCT,,0.00,WeatherDisplay:10.37,2013-03-21 04:45:00,
2013-03-21 01:00:00,16.0,12.0,29.90,SW,216,3.0,5.0,84,0.00,SCT,,0.00,WeatherDisplay:10.37,2013-03-21 05:00:00,
2013-03-21 01:15:00,16.0,12.0,29.89,SW,230,3.0,6.0,84,0.00,SCT,,0.00,WeatherDisplay:10.37,2013-03-21 05:15:00,
2013-03-21 01:30:00,16.0,12.0,29.89,SW,225,5.0,5.0,84,0.00,SCT,,0.00,WeatherDisplay:10.37,2013-03-21 05:30:00,
2013-03-21 01:45:00,16.0,12.0,29.89,SSW,193,3.0,5.0,84,0.00,SCT,,0.00,WeatherDisplay:10.37,2013-03-21 05:45:00,
2013-03-21 02:00:00,16.0,12.0,29.88,SSW,201,3.0,6.0,84,0.00,SCT,,0.00,WeatherDisplay:10.37,2013-03-21 06:00:00,
2013-03-21 02:15:00,16.2,12.2,29.87,SW,218,5.0,6.0,84,0.00,BKN,,0.00,WeatherDisplay:10.37,2013-03-21 06:15:00,
2013-03-21 02:30:00,16.7,13.0,29.87,SW,226,3.0,6.0,85,0.00,BKN,,0.00,WeatherDisplay:10.37,2013-03-21 06:30:00,
2013-03-21 02:45:00,17.4,13.9,29.88,SW,229,3.0,5.0,86,0.00,BKN,,0.00,WeatherDisplay:10.37,2013-03-21 06:45:00,
2013-03-21 03:00:00,17.4,13.7,29.87,SW,217,1.0,4.0,85,0.00,BKN,,0.00,WeatherDisplay:10.37,2013-03-21 07:00:00,
2013-03-21 03:15:00,17.6,13.9,29.87,WSW,243,3.0,7.0,85,0.00,-SN,,0.00,WeatherDisplay:10.37,2013-03-21 07:15:00,
2013-03-21 03:30:00,18.1,14.7,29.87,SW,229,3.0,7.0,86,0.00,-SN,,0.00,WeatherDisplay:10.37,2013-03-21 07:30:00,
2013-03-21 03:45:00,18.1,14.4,29.87,SW,225,3.0,6.0,85,0.00,-SN,,0.00,WeatherDisplay:10.37,2013-03-21 07:45:00,
2013-03-21 04:00:00,18.1,14.4,29.86,SW,224,3.0,7.0,85,0.00,-SN,,0.00,WeatherDisplay:10.37,2013-03-21 08:00:00,
2013-03-21 04:15:00,18.1,14.4,29.86,SW,234,3.0,7.0,85,0.00,-SN,,0.00,WeatherDisplay:10.37,2013-03-21 08:15:00,
2013-03-21 04:30:00,17.7,14.0,29.86,SSW,212,3.0,5.0,85,0.00,-SN,,0.00,WeatherDisplay:10.37,2013-03-21 08:30:00,
2013-03-21 04:45:00,17.4,13.7,29.85,SSW,211,2.0,3.0,85,0.00,-SN,,0.00,WeatherDisplay:10.37,2013-03-21 08:45:00,
2013-03-21 05:00:00,17.4,13.7,29.85,SSW,198,2.0,4.0,85,0.00,-SN,,0.00,WeatherDisplay:10.37,2013-03-21 09:00:00,
2013-03-21 05:15:00,17.2,13.5,29.85,SSW,211,2.0,3.0,85,0.00,OVC,,0.00,WeatherDisplay:10.37,2013-03-21 09:15:00,
2013-03-21 05:30:00,17.5,13.8,29.85,SSW,210,2.0,4.0,85,0.00,OVC,,0.00,WeatherDisplay:10.37,2013-03-21 09:30:00,
2013-03-21 05:45:00,17.8,14.3,29.85,SW,222,5.0,7.0,86,0.00,OVC,,0.00,WeatherDisplay:10.37,2013-03-21 09:45:00,
2013-03-21 06:00:00,18.1,14.7,29.85,WSW,247,3.0,7.0,86,0.00,OVC,,0.00,WeatherDisplay:10.37,2013-03-21 10:00:00,
2013-03-21 06:15:00,18.9,15.6,29.86,West,273,3.0,6.0,87,0.00,-SN,,0.00,WeatherDisplay:10.37,2013-03-21 10:15:00,
2013-03-21 06:30:00,19.6,16.3,29.86,WSW,255,5.0,7.0,87,0.00,-SN,,0.00,WeatherDisplay:10.37,2013-03-21 10:30:00,
2013-03-21 06:45:00,19.9,16.7,29.86,WSW,257,3.0,5.0,87,0.00,-SN,,0.00,WeatherDisplay:10.37,2013-03-21 10:45:00,
2013-03-21 07:00:00,20.6,17.4,29.86,WSW,258,5.0,8.0,87,0.00,-SN,,0.00,WeatherDisplay:10.37,2013-03-21 11:00:00,
2013-03-21 07:15:00,20.7,17.1,29.86,WSW,248,3.0,7.0,86,0.00,OVC,,0.00,WeatherDisplay:10.37,2013-03-21 11:15:00,
2013-03-21 07:30:00,21.0,17.8,29.86,WSW,252,3.0,7.0,87,0.00,OVC,,0.00,WeatherDisplay:10.37,2013-03-21 11:30:00,
2013-03-21 07:45:00,21.4,18.1,29.85,WSW,254,3.0,7.0,87,0.00,-SN,,0.00,WeatherDisplay:10.37,2013-03-21 11:45:00,
2013-03-21 08:00:00,22.1,18.8,29.86,WNW,292,3.0,7.0,87,0.00,-SN,,0.00,WeatherDisplay:10.37,2013-03-21 12:00:00,
2013-03-21 08:15:00,22.6,19.4,29.85,West,270,6.0,9.0,87,0.00,-SN,,0.00,WeatherDisplay:10.37,2013-03-21 12:15:00,
2013-03-21 08:30:00,23.2,19.9,29.85,WSW,248,5.0,8.0,87,0.00,-SN,,0.00,WeatherDisplay:10.37,2013-03-21 12:30:00,
2013-03-21 08:45:00,23.9,20.6,29.85,West,269,6.0,8.0,87,0.00,-SN,,0.00,WeatherDisplay:10.37,2013-03-21 12:45:00,
2013-03-21 09:00:00,24.3,20.9,29.86,West,266,5.0,8.0,87,0.00,-SN,,0.00,WeatherDisplay:10.37,2013-03-21 13:00:00,
2013-03-21 09:15:00,24.8,21.2,29.87,WSW,256,7.0,10.0,86,0.00,OVC,,0.00,WeatherDisplay:10.37,2013-03-21 13:15:00,
2013-03-21 09:30:00,25.6,22.0,29.87,West,273,6.0,9.0,86,0.00,OVC,,0.00,WeatherDisplay:10.37,2013-03-21 13:30:00,
2013-03-21 09:45:00,27.1,23.2,29.86,WNW,288,6.0,10.0,85,0.00,OVC,,0.00,WeatherDisplay:10.37,2013-03-21 13:45:00,
2013-03-21 10:00:00,27.5,22.7,29.87,WNW,282,7.0,12.0,82,0.00,OVC,,0.00,WeatherDisplay:10.37,2013-03-21 14:00:00,
2013-03-21 10:15:00,28.9,23.8,29.86,WNW,290,7.0,13.0,81,0.00,BKN,,0.00,WeatherDisplay:10.37,2013-03-21 14:15:00,
2013-03-21 10:30:00,30.0,24.5,29.86,West,269,6.0,10.0,80,0.00,BKN,,0.00,WeatherDisplay:10.37,2013-03-21 14:30:00,
2013-03-21 10:45:00,29.7,23.3,29.87,NW,309,7.0,13.0,77,0.00,BKN,,0.00,WeatherDisplay:10.37,2013-03-21 14:45:00,
2013-03-21 11:00:00,30.0,23.7,29.87,West,279,7.0,13.0,77,0.00,BKN,,0.00,WeatherDisplay:10.37,2013-03-21 15:00:00,
2013-03-21 11:15:00,29.7,23.3,29.88,WNW,285,8.0,13.0,77,0.00,BKN,,0.00,WeatherDisplay:10.37,2013-03-21 15:15:00,
2013-03-21 11:30:00,30.4,24.0,29.88,West,279,8.0,12.0,77,0.00,BKN,,0.00,WeatherDisplay:10.37,2013-03-21 15:30:00,
2013-03-21 11:45:00,30.4,23.4,29.88,West,275,7.0,13.0,75,0.00,BKN,,0.00,WeatherDisplay:10.37,2013-03-21 15:45:00,
2013-03-21 12:00:00,30.4,23.4,29.88,NW,306,7.0,10.0,75,0.00,BKN,,0.00,WeatherDisplay:10.37,2013-03-21 16:00:00,
2013-03-21 12:15:00,30.6,23.9,29.88,WNW,294,9.0,13.0,76,0.00,-SN,,0.00,WeatherDisplay:10.37,2013-03-21 16:15:00,
2013-03-21 12:30:00,30.4,24.0,29.88,WNW,299,7.0,14.0,77,0.00,-SN,,0.00,WeatherDisplay:10.37,2013-03-21 16:30:00,
2013-03-21 12:45:00,31.1,25.3,29.88,WSW,257,9.0,16.0,79,0.00,-SN,,0.00,WeatherDisplay:10.37,2013-03-21 16:45:00,
2013-03-21 13:00:00,31.4,25.0,29.88,WNW,286,8.0,14.0,77,0.00,-SN,,0.00,WeatherDisplay:10.37,2013-03-21 17:00:00,
2013-03-21 13:15:00,31.1,24.1,29.88,West,279,10.0,16.0,75,0.00,-SN,,0.00,WeatherDisplay:10.37,2013-03-21 17:15:00,
2013-03-21 13:30:00,31.4,24.4,29.88,WNW,289,9.0,16.0,75,0.00,-SN,,0.00,WeatherDisplay:10.37,2013-03-21 17:30:00,
2013-03-21 13:45:00,32.0,25.3,29.89,West,277,10.0,15.0,76,0.00,-SN,,0.00,WeatherDisplay:10.37,2013-03-21 17:45:00,
2013-03-21 14:00:00,31.8,25.4,29.88,West,281,8.0,15.0,77,0.00,-SN,,0.00,WeatherDisplay:10.37,2013-03-21 18:00:00,
2013-03-21 14:15:00,32.0,25.6,29.89,West,261,10.0,17.0,77,0.00,-SN,,0.00,WeatherDisplay:10.37,2013-03-21 18:15:00,
2013-03-21 14:30:00,32.0,25.7,29.89,West,266,10.0,17.0,77,0.00,-SN,,0.00,WeatherDisplay:10.37,2013-03-21 18:30:00,
2013-03-21 14:45:00,31.8,26.0,29.88,West,262,12.0,16.0,79,0.00,-SN,,0.00,WeatherDisplay:10.37,2013-03-21 18:45:00,
2013-03-21 15:00:00,31.3,25.5,29.89,NW,320,10.0,16.0,79,0.00,-SN,,0.00,WeatherDisplay:10.37,2013-03-21 19:00:00,
2013-03-21 15:15:00,31.3,24.9,29.88,WNW,286,9.0,16.0,77,0.00,-SN,,0.00,WeatherDisplay:10.37,2013-03-21 19:15:00,
2013-03-21 15:30:00,32.0,25.0,29.88,WNW,303,9.0,16.0,75,0.00,-SN,,0.00,WeatherDisplay:10.37,2013-03-21 19:30:00,
2013-03-21 15:45:00,32.5,25.5,29.88,WSW,254,12.0,16.0,75,0.00,-SN,,0.00,WeatherDisplay:10.37,2013-03-21 19:45:00,
2013-03-21 16:00:00,32.3,25.3,29.88,West,272,13.0,20.0,75,0.00,-SN,,0.00,WeatherDisplay:10.37,2013-03-21 20:00:00,
2013-03-21 16:15:00,32.7,25.0,29.88,West,274,13.0,20.0,73,0.00,-SN,,0.00,WeatherDisplay:10.37,2013-03-21 20:15:00,
2013-03-21 16:30:00,32.5,24.5,29.88,WNW,285,12.0,18.0,72,0.00,-SN,,0.00,WeatherDisplay:10.37,2013-03-21 20:30:00,
2013-03-21 16:45:00,31.8,23.8,29.89,WNW,284,12.0,18.0,72,0.00,-SN,,0.00,WeatherDisplay:10.37,2013-03-21 20:45:00,
2013-03-21 17:00:00,31.8,23.1,29.89,WNW,282,12.0,19.0,70,0.00,-SN,,0.00,WeatherDisplay:10.37,2013-03-21 21:00:00,
2013-03-21 17:15:00,31.5,22.5,29.89,WNW,298,12.0,15.0,69,0.00,OVC,,0.00,WeatherDisplay:10.37,2013-03-21 21:15:00,
2013-03-21 17:30:00,31.3,22.6,29.89,NW,305,10.0,17.0,70,0.00,OVC,,0.00,WeatherDisplay:10.37,2013-03-21 21:30:00,
2013-03-21 17:45:00,31.5,22.5,29.90,West,277,12.0,17.0,69,0.00,OVC,,0.00,WeatherDisplay:10.37,2013-03-21 21:45:00,
2013-03-21 18:00:00,31.1,22.1,29.91,WNW,291,12.0,18.0,69,0.00,-SN,,0.00,WeatherDisplay:10.37,2013-03-21 22:00:00,
2013-03-21 18:15:00,31.1,21.8,29.91,WNW,293,10.0,19.0,68,0.00,-SN,,0.00,WeatherDisplay:10.37,2013-03-21 22:15:00,
2013-03-21 18:30:00,30.4,21.1,29.91,NW,307,13.0,21.0,68,0.00,-SN,,0.00,WeatherDisplay:10.37,2013-03-21 22:30:00,
2013-03-21 18:45:00,30.4,22.1,29.91,West,265,12.0,18.0,71,0.00,-SN,,0.00,WeatherDisplay:10.37,2013-03-21 22:45:00,
2013-03-21 19:00:00,30.0,22.0,29.91,WNW,299,10.0,16.0,72,0.00,-SN,,0.00,WeatherDisplay:10.37,2013-03-21 23:00:00,
2013-03-21 19:15:00,29.7,21.7,29.91,WNW,302,7.0,13.0,72,0.00,-SN,,0.00,WeatherDisplay:10.37,2013-03-21 23:15:00,
2013-03-21 19:30:00,29.2,22.3,29.91,WNW,303,10.0,20.0,75,0.00,-SN,,0.00,WeatherDisplay:10.37,2013-03-21 23:30:00,
2013-03-21 19:45:00,28.9,22.6,29.91,West,273,10.0,13.0,77,0.00,-SN,,0.00,WeatherDisplay:10.37,2013-03-21 23:45:00,
2013-03-21 20:00:00,28.4,22.1,29.91,WSW,254,8.0,14.0,77,0.00,-SN,,0.00,WeatherDisplay:10.37,2013-03-22 00:00:00,
2013-03-21 20:15:00,28.2,21.9,29.91,West,274,8.0,13.0,77,0.00,-SN,,0.00,WeatherDisplay:10.37,2013-03-22 00:15:00,
2013-03-21 20:30:00,28.0,21.8,29.91,West,269,9.0,13.0,77,0.00,-SN,,0.00,WeatherDisplay:10.37,2013-03-22 00:30:00,
2013-03-21 20:45:00,27.9,21.6,29.92,WNW,298,9.0,13.0,77,0.00,-SN,,0.00,WeatherDisplay:10.37,2013-03-22 00:45:00,
2013-03-21 21:00:00,27.9,21.6,29.93,WNW,292,7.0,13.0,77,0.00,-SN,,0.00,WeatherDisplay:10.37,2013-03-22 01:00:00,
2013-03-21 21:15:00,27.7,21.4,29.93,West,278,6.0,13.0,77,0.00,OVC,,0.00,WeatherDisplay:10.37,2013-03-22 01:15:00,
2013-03-21 21:30:00,27.8,21.5,29.93,West,259,6.0,10.0,77,0.00,OVC,,0.00,WeatherDisplay:10.37,2013-03-22 01:30:00,
2013-03-21 21:45:00,27.7,21.1,29.93,WNW,284,7.0,10.0,76,0.00,OVC,,0.00,WeatherDisplay:10.37,2013-03-22 01:45:00,
2013-03-21 22:00:00,27.7,20.8,29.93,WNW,293,7.0,12.0,75,0.00,OVC,,0.00,WeatherDisplay:10.37,2013-03-22 02:00:00,
2013-03-21 22:15:00,27.9,21.0,29.93,WNW,289,7.0,9.0,75,0.00,OVC,,0.00,WeatherDisplay:10.37,2013-03-22 02:15:00,
2013-03-21 22:30:00,27.5,20.6,29.93,West,270,7.0,10.0,75,0.00,OVC,,0.00,WeatherDisplay:10.37,2013-03-22 02:30:00,
2013-03-21 22:45:00,27.5,20.6,29.93,WNW,292,5.0,9.0,75,0.00,OVC,,0.00,WeatherDisplay:10.37,2013-03-22 02:45:00,
2013-03-21 23:00:00,27.5,20.6,29.93,WNW,295,6.0,7.0,75,0.00,OVC,,0.00,WeatherDisplay:10.37,2013-03-22 03:00:00,
2013-03-21 23:15:00,27.5,20.3,29.94,WNW,293,5.0,10.0,74,0.00,OVC,,0.00,WeatherDisplay:10.37,2013-03-22 03:15:00,
2013-03-21 23:30:00,27.5,20.3,29.94,NW,309,5.0,8.0,74,0.00,OVC,,0.00,WeatherDisplay:10.37,2013-03-22 03:30:00,
2013-03-21 23:45:00,27.5,20.0,29.94,WNW,284,5.0,8.0,73,0.00,OVC,,0.00,WeatherDisplay:10.37,2013-03-22 03:45:00,